Time;durP1;ratioP1;P1;durP2;ratioP2;P2;SDS_P1;SDS_P2;PMS_P1;PMS_P2;Temp;Humidity;BMP_temperature;BMP_pressure;BME280_temperature;BME280_humidity;BME280_pressure;Samples;Min_cycle;Max_cycle;Signal;HPM_P1;HPM_P2
2023/11/15 00:00:17;;;;;;;0.20;0.20;;;;;;;-145.01;100.00;64805.59;4898938;29;20084;-59
2023/11/15 00:02:44;;;;;;;0.20;0.20;;;;;;;-145.01;100.00;64805.59;4897380;29;20048;-60
2023/11/15 00:05:14;;;;;;;0.30;0.30;;;;;;;-145.01;100.00;64805.59;4910181;29;20126;-59
2023/11/15 00:07:41;;;;;;;0.20;0.20;;;;;;;-145.01;100.00;64805.59;4896693;29;20056;-60
2023/11/15 00:10:09;;;;;;;0.30;0.30;;;;;;;-145.01;100.00;64805.59;4898884;29;20167;-60
2023/11/15 00:12:36;;;;;;;0.20;0.20;;;;;;;-145.01;100.00;64805.59;4900318;29;20044;-60
2023/11/15 00:15:04;;;;;;;0.20;0.20;;;;;;;-145.01;100.00;64805.59;4907623;29;20036;-60
2023/11/15 00:17:33;;;;;;;0.20;0.20;;;;;;;-145.01;100.00;64805.59;4900645;29;20048;-59
2023/11/15 00:20:03;;;;;;;0.20;0.20;;;;;;;-145.01;100.00;64805.59;4905562;29;20044;-60
2023/11/15 00:22:31;;;;;;;0.25;0.25;;;;;;;-145.01;100.00;64805.59;4899446;29;20181;-59
2023/11/15 00:24:58;;;;;;;0.30;0.30;;;;;;;-145.01;100.00;64805.59;4903307;29;20155;-60
2023/11/15 00:27:26;;;;;;;0.30;0.30;;;;;;;-145.01;100.00;64805.59;4906242;29;20413;-60
2023/11/15 00:29:53;;;;;;;0.20;0.20;;;;;;;-145.01;100.00;64805.59;4897913;29;20131;-59
2023/11/15 00:32:21;;;;;;;0.30;0.30;;;;;;;-145.01;100.00;64805.59;4911455;29;20052;-59
2023/11/15 00:34:50;;;;;;;0.30;0.30;;;;;;;-145.01;100.00;64805.59;4907978;29;20057;-60
2023/11/15 00:37:17;;;;;;;0.30;0.30;;;;;;;-145.01;100.00;64805.59;4894675;29;20045;-59
2023/11/15 00:39:44;;;;;;;0.20;0.20;;;;;;;-145.01;100.00;64805.59;4904285;29;20261;-59
2023/11/15 00:42:11;;;;;;;0.20;0.20;;;;;;;-145.01;100.00;64805.59;4901500;29;20072;-59
2023/11/15 00:44:38;;;;;;;0.13;0.13;;;;;;;-145.01;100.00;64805.59;4896275;29;20068;-60
2023/11/15 00:47:06;;;;;;;0.20;0.20;;;;;;;-145.01;100.00;64805.59;4894749;29;20051;-59
2023/11/15 00:49:33;;;;;;;0.20;0.20;;;;;;;-145.01;100.00;64805.59;4895252;29;20304;-59
2023/11/15 00:52:02;;;;;;;0.30;0.30;;;;;;;-145.01;100.00;64805.59;4892353;29;20460;-59
2023/11/15 00:54:29;;;;;;;0.20;0.20;;;;;;;-145.01;100.00;64805.59;4906282;29;20068;-59
2023/11/15 00:56:56;;;;;;;0.22;0.22;;;;;;;-145.01;100.00;64805.59;4891306;29;20124;-59
2023/11/15 00:59:36;;;;;;;0.22;0.22;;;;;;;-145.01;100.00;64805.59;4897774;29;20056;-59
2023/11/15 01:02:05;;;;;;;0.30;0.30;;;;;;;-145.01;100.00;64805.59;4904047;29;20044;-59
2023/11/15 01:04:32;;;;;;;0.30;0.30;;;;;;;-145.01;100.00;64805.59;4900761;29;20058;-59
2023/11/15 01:06:59;;;;;;;0.28;0.28;;;;;;;-145.01;100.00;64805.59;4886937;29;20162;-59
2023/11/15 01:09:28;;;;;;;0.20;0.20;;;;;;;-145.01;100.00;64805.59;4894126;29;20127;-59
2023/11/15 01:11:55;;;;;;;0.20;0.20;;;;;;;-145.01;100.00;64805.59;4901495;29;20843;-59
2023/11/15 01:14:22;;;;;;;0.20;0.20;;;;;;;-145.01;100.00;64805.59;4905555;29;20139;-59
2023/11/15 01:16:50;;;;;;;0.30;0.30;;;;;;;-145.01;100.00;64805.59;4896627;29;20053;-59
2023/11/15 01:19:17;;;;;;;0.30;0.30;;;;;;;-145.01;100.00;64805.59;4891623;29;20140;-59
2023/11/15 01:21:44;;;;;;;0.20;0.20;;;;;;;-145.01;100.00;64805.59;4893193;29;20052;-60
2023/11/15 01:24:11;;;;;;;0.30;0.30;;;;;;;-145.01;100.00;64805.59;4906513;29;20063;-59
2023/11/15 01:26:42;;;;;;;0.20;0.20;;;;;;;-145.01;100.00;64805.59;4912011;29;20067;-60
2023/11/15 01:29:09;;;;;;;0.28;0.28;;;;;;;-145.01;100.00;64805.59;4910811;29;20103;-59
2023/11/15 01:31:36;;;;;;;0.30;0.30;;;;;;;-145.01;100.00;64805.59;4902908;29;20052;-58
2023/11/15 01:34:05;;;;;;;0.20;0.20;;;;;;;-145.01;100.00;64805.59;4905304;29;20051;-58
2023/11/15 01:36:32;;;;;;;0.30;0.30;;;;;;;-145.01;100.00;64805.59;4893273;29;20472;-58
2023/11/15 01:38:59;;;;;;;0.20;0.20;;;;;;;-145.01;100.00;64805.59;4904069;29;20620;-58
2023/11/15 01:41:27;;;;;;;0.30;0.30;;;;;;;-145.01;100.00;64805.59;4905350;29;20060;-58
2023/11/15 01:43:55;;;;;;;0.20;0.20;;;;;;;-145.01;100.00;64805.59;4903434;29;20056;-58
2023/11/15 01:46:22;;;;;;;0.30;0.30;;;;;;;-145.01;100.00;64805.59;4911276;29;20085;-58
2023/11/15 01:48:50;;;;;;;0.22;0.22;;;;;;;-145.01;100.00;64805.59;4897068;29;20215;-58
2023/11/15 01:51:17;;;;;;;0.30;0.30;;;;;;;-145.01;100.00;64805.59;4909614;29;20048;-58
2023/11/15 01:53:44;;;;;;;0.28;0.28;;;;;;;-145.01;100.00;64805.59;4902066;29;20531;-58
2023/11/15 01:56:11;;;;;;;0.22;0.22;;;;;;;-145.01;100.00;64805.59;4895025;29;20131;-58
2023/11/15 01:58:38;;;;;;;0.32;0.32;;;;;;;-145.01;100.00;64805.59;4906974;29;20129;-58
2023/11/15 02:01:08;;;;;;;0.30;0.30;;;;;;;-145.01;100.00;64805.59;4899189;29;20610;-58
2023/11/15 02:03:35;;;;;;;0.30;0.30;;;;;;;-145.01;100.00;64805.59;4910248;29;20044;-58
2023/11/15 02:06:03;;;;;;;0.30;0.30;;;;;;;-145.01;100.00;64805.59;4912026;29;20590;-58
2023/11/15 02:08:30;;;;;;;0.30;0.30;;;;;;;-145.01;100.00;64805.59;4903066;29;20235;-58
2023/11/15 02:10:57;;;;;;;0.20;0.20;;;;;;;-145.01;100.00;64805.59;4897519;29;20043;-58
2023/11/15 02:13:25;;;;;;;0.20;0.20;;;;;;;-145.01;100.00;64805.59;4900113;29;20075;-58
2023/11/15 02:15:56;;;;;;;0.22;0.22;;;;;;;-145.01;100.00;64805.59;4905426;29;20139;-58
2023/11/15 02:18:25;;;;;;;0.20;0.20;;;;;;;-145.01;100.00;64805.59;4911334;29;20100;-58
2023/11/15 02:20:52;;;;;;;0.20;0.20;;;;;;;-145.01;100.00;64805.59;4903843;29;20776;-58
2023/11/15 02:23:20;;;;;;;0.30;0.30;;;;;;;-145.01;100.00;64805.59;4907515;29;20056;-58
2023/11/15 02:25:50;;;;;;;0.20;0.20;;;;;;;-145.01;100.00;64805.59;4904614;29;20526;-59
2023/11/15 02:28:17;;;;;;;0.20;0.20;;;;;;;-145.01;100.00;64805.59;4914797;29;20051;-58
2023/11/15 02:30:45;;;;;;;0.30;0.30;;;;;;;-145.01;100.00;64805.59;4906094;29;20502;-58
2023/11/15 02:33:13;;;;;;;0.30;0.30;;;;;;;-145.01;100.00;64805.59;4903059;29;20782;-58
2023/11/15 02:35:40;;;;;;;0.20;0.20;;;;;;;-145.01;100.00;64805.59;4911649;29;20114;-58
2023/11/15 02:38:07;;;;;;;0.20;0.20;;;;;;;-145.01;100.00;64805.59;4905753;29;20051;-59
2023/11/15 02:40:34;;;;;;;0.22;0.22;;;;;;;-145.01;100.00;64805.59;4896963;29;20264;-58
2023/11/15 02:43:06;;;;;;;0.20;0.20;;;;;;;-145.01;100.00;64805.59;4904002;29;20049;-58
2023/11/15 02:45:33;;;;;;;0.20;0.20;;;;;;;-145.01;100.00;64805.59;4904816;29;20093;-58
2023/11/15 02:48:00;;;;;;;0.20;0.20;;;;;;;-145.01;100.00;64805.59;4909932;29;20128;-58
2023/11/15 02:50:28;;;;;;;0.20;0.20;;;;;;;-145.01;100.00;64805.59;4908827;29;20138;-58
2023/11/15 02:52:56;;;;;;;0.20;0.20;;;;;;;-145.01;100.00;64805.59;4903460;29;20167;-58
2023/11/15 02:55:23;;;;;;;0.30;0.30;;;;;;;-145.01;100.00;64805.59;4893070;29;20100;-58
2023/11/15 02:57:50;;;;;;;0.20;0.20;;;;;;;-145.01;100.00;64805.59;4896258;29;20055;-58
2023/11/15 03:00:19;;;;;;;0.20;0.20;;;;;;;-145.01;100.00;64805.59;4896612;29;20040;-58
2023/11/15 03:02:47;;;;;;;0.20;0.20;;;;;;;-145.01;100.00;64805.59;4892553;29;20063;-59
2023/11/15 03:05:14;;;;;;;0.30;0.30;;;;;;;-145.01;100.00;64805.59;4899323;29;20043;-59
2023/11/15 03:07:41;;;;;;;0.30;0.30;;;;;;;-145.01;100.00;64805.59;4890641;29;20052;-58
2023/11/15 03:10:09;;;;;;;0.20;0.20;;;;;;;-145.01;100.00;64805.59;4903206;29;20088;-59
2023/11/15 03:12:36;;;;;;;0.20;0.20;;;;;;;-145.01;100.00;64805.59;4903933;29;20085;-58
2023/11/15 03:15:05;;;;;;;0.20;0.20;;;;;;;-145.01;100.00;64805.59;4902751;29;20049;-58
2023/11/15 03:17:33;;;;;;;0.20;0.20;;;;;;;-145.01;100.00;64805.59;4893320;29;20055;-58
2023/11/15 03:20:00;;;;;;;0.20;0.20;;;;;;;-145.01;100.00;64805.59;4898008;29;20347;-58
2023/11/15 03:22:27;;;;;;;0.20;0.20;;;;;;;-145.01;100.00;64805.59;4903250;29;20475;-58
2023/11/15 03:24:54;;;;;;;0.20;0.20;;;;;;;-145.01;100.00;64805.59;4901076;29;20067;-58
2023/11/15 03:27:21;;;;;;;0.20;0.20;;;;;;;-145.01;100.00;64805.59;4899896;29;20374;-58
2023/11/15 03:29:49;;;;;;;0.20;0.20;;;;;;;-145.01;100.00;64805.59;4905579;29;20135;-58
2023/11/15 03:32:17;;;;;;;0.22;0.22;;;;;;;-145.01;100.00;64805.59;4893973;29;20589;-58
2023/11/15 03:34:45;;;;;;;0.20;0.20;;;;;;;-145.01;100.00;64805.59;4909057;29;20109;-58
2023/11/15 03:37:12;;;;;;;0.22;0.22;;;;;;;-145.01;100.00;64805.59;4899340;29;20047;-58
2023/11/15 03:39:39;;;;;;;0.30;0.30;;;;;;;-145.01;100.00;64805.59;4900709;29;20448;-58
2023/11/15 03:42:06;;;;;;;0.30;0.30;;;;;;;-145.01;100.00;64805.59;4898587;29;20091;-58
2023/11/15 03:44:33;;;;;;;0.20;0.20;;;;;;;-145.01;100.00;64805.59;4901107;29;20076;-58
2023/11/15 03:47:00;;;;;;;0.30;0.30;;;;;;;-145.01;100.00;64805.59;4894633;29;20050;-58
2023/11/15 03:49:27;;;;;;;0.20;0.20;;;;;;;-145.01;100.00;64805.59;4899724;29;20451;-58
2023/11/15 03:51:56;;;;;;;0.20;0.20;;;;;;;-145.01;100.00;64805.59;4902052;29;20051;-63
2023/11/15 03:54:24;;;;;;;0.30;0.30;;;;;;;-145.01;100.00;64805.59;4899732;29;20444;-58
2023/11/15 03:56:51;;;;;;;0.28;0.28;;;;;;;-145.01;100.00;64805.59;4902329;29;20060;-58
2023/11/15 03:59:19;;;;;;;0.30;0.30;;;;;;;-145.01;100.00;64805.59;4901218;29;20067;-58
2023/11/15 04:01:48;;;;;;;0.10;0.10;;;;;;;-145.01;100.00;64805.59;4896939;29;20044;-58
2023/11/15 04:04:15;;;;;;;0.20;0.20;;;;;;;-145.01;100.00;64805.59;4899533;29;20044;-58
2023/11/15 04:06:42;;;;;;;0.20;0.20;;;;;;;-145.01;100.00;64805.59;4894777;29;20040;-58
2023/11/15 04:09:11;;;;;;;0.20;0.20;;;;;;;-145.01;100.00;64805.59;4899914;29;20047;-58
2023/11/15 04:11:39;;;;;;;0.30;0.30;;;;;;;-145.01;100.00;64805.59;4895963;29;20060;-59
2023/11/15 04:14:06;;;;;;;0.30;0.30;;;;;;;-145.01;100.00;64805.59;4885330;29;20071;-58
2023/11/15 04:16:33;;;;;;;0.30;0.30;;;;;;;-145.01;100.00;64805.59;4913515;29;20427;-60
2023/11/15 04:19:00;;;;;;;0.30;0.30;;;;;;;-145.01;100.00;64805.59;4907193;29;20103;-58
2023/11/15 04:21:28;;;;;;;0.20;0.20;;;;;;;-145.01;100.00;64805.59;4897029;29;20051;-58
2023/11/15 04:23:56;;;;;;;0.40;0.40;;;;;;;-145.01;100.00;64805.59;4899367;29;20064;-58
2023/11/15 04:26:24;;;;;;;0.20;0.20;;;;;;;-145.01;100.00;64805.59;4906614;29;20047;-58
2023/11/15 04:28:53;;;;;;;0.20;0.20;;;;;;;-145.01;100.00;64805.59;4898439;29;20056;-58
2023/11/15 04:31:22;;;;;;;0.40;0.40;;;;;;;-145.01;100.00;64805.59;4900310;29;20071;-58
2023/11/15 04:33:50;;;;;;;0.32;0.32;;;;;;;-145.01;100.00;64805.59;4893434;29;20052;-58
2023/11/15 04:36:19;;;;;;;0.30;0.30;;;;;;;-145.01;100.00;64805.59;4898573;29;20041;-58
2023/11/15 04:38:47;;;;;;;0.30;0.30;;;;;;;-145.01;100.00;64805.59;4901176;29;20059;-59
2023/11/15 04:41:16;;;;;;;0.30;0.30;;;;;;;-145.01;100.00;64805.59;4898325;29;20139;-58
2023/11/15 04:43:45;;;;;;;0.30;0.30;;;;;;;-145.01;100.00;64805.59;4895108;29;20599;-58
2023/11/15 04:46:13;;;;;;;0.30;0.30;;;;;;;-145.01;100.00;64805.59;4898074;29;20503;-58
2023/11/15 04:48:40;;;;;;;0.30;0.30;;;;;;;-145.01;100.00;64805.59;4898642;29;20516;-58
2023/11/15 04:51:07;;;;;;;0.20;0.20;;;;;;;-145.01;100.00;64805.59;4897622;29;20132;-58
2023/11/15 04:53:34;;;;;;;0.20;0.20;;;;;;;-145.01;100.00;64805.59;4899118;29;20147;-58
2023/11/15 04:56:02;;;;;;;0.20;0.20;;;;;;;-145.01;100.00;64805.59;4901635;29;20605;-58
2023/11/15 04:58:30;;;;;;;0.25;0.25;;;;;;;-145.01;100.00;64805.59;4903060;29;20126;-58
2023/11/15 05:00:59;;;;;;;0.30;0.30;;;;;;;-145.01;100.00;64805.59;4909178;29;20426;-58
2023/11/15 05:03:27;;;;;;;0.30;0.30;;;;;;;-145.01;100.00;64805.59;4899949;29;20119;-58
2023/11/15 05:05:58;;;;;;;0.20;0.20;;;;;;;-145.01;100.00;64805.59;4904836;29;20511;-61
2023/11/15 05:08:26;;;;;;;0.20;0.20;;;;;;;-145.01;100.00;64805.59;4902944;29;20102;-58
2023/11/15 05:10:53;;;;;;;0.30;0.30;;;;;;;-145.01;100.00;64805.59;4898827;29;20059;-60
2023/11/15 05:13:20;;;;;;;0.30;0.30;;;;;;;-145.01;100.00;64805.59;4901820;29;20052;-58
2023/11/15 05:15:48;;;;;;;0.22;0.22;;;;;;;-145.01;100.00;64805.59;4911228;29;20405;-58
2023/11/15 05:18:16;;;;;;;0.28;0.28;;;;;;;-145.01;100.00;64805.59;4896001;29;20052;-60
2023/11/15 05:20:45;;;;;;;0.25;0.25;;;;;;;-145.01;100.00;64805.59;4901773;29;20139;-58
2023/11/15 05:23:12;;;;;;;0.30;0.30;;;;;;;-145.01;100.00;64805.59;4907107;29;20503;-60
2023/11/15 05:25:40;;;;;;;0.25;0.25;;;;;;;-145.01;100.00;64805.59;4908354;29;20040;-58
2023/11/15 05:28:07;;;;;;;0.30;0.30;;;;;;;-145.01;100.00;64805.59;4901803;29;20047;-60
2023/11/15 05:30:34;;;;;;;0.30;0.30;;;;;;;-145.01;100.00;64805.59;4911252;29;20050;-60
2023/11/15 05:33:01;;;;;;;0.30;0.30;;;;;;;-145.01;100.00;64805.59;4903967;29;20067;-59
2023/11/15 05:35:30;;;;;;;0.30;0.30;;;;;;;-145.01;100.00;64805.59;4912613;29;20124;-59
2023/11/15 05:37:58;;;;;;;0.22;0.22;;;;;;;-145.01;100.00;64805.59;4902660;29;20138;-60
2023/11/15 05:40:25;;;;;;;0.30;0.30;;;;;;;-145.01;100.00;64805.59;4908119;29;20052;-60
2023/11/15 05:43:00;;;;;;;0.25;0.25;;;;;;;-145.01;100.00;64805.59;4900481;29;20155;-61
2023/11/15 05:45:27;;;;;;;0.20;0.20;;;;;;;-145.01;100.00;64805.59;4905327;29;20048;-59
2023/11/15 05:47:54;;;;;;;0.20;0.20;;;;;;;-145.01;100.00;64805.59;4905110;29;20080;-59
2023/11/15 05:50:25;;;;;;;0.30;0.30;;;;;;;-145.01;100.00;64805.59;4903350;29;20100;-59
2023/11/15 05:52:55;;;;;;;0.30;0.30;;;;;;;-145.01;100.00;64805.59;4896536;29;20159;-59
2023/11/15 05:55:22;;;;;;;0.30;0.30;;;;;;;-145.01;100.00;64805.59;4907670;29;20559;-59
2023/11/15 05:57:50;;;;;;;0.30;0.30;;;;;;;-145.01;100.00;64805.59;4899972;29;20048;-59
2023/11/15 06:00:20;;;;;;;0.20;0.20;;;;;;;-145.01;100.00;64805.59;4902244;29;20075;-59
2023/11/15 06:02:50;;;;;;;0.20;0.20;;;;;;;-145.01;100.00;64805.59;4899559;29;20060;-59
2023/11/15 06:05:19;;;;;;;0.30;0.30;;;;;;;-145.01;100.00;64805.59;4903031;29;20052;-58
2023/11/15 06:07:45;;;;;;;0.30;0.30;;;;;;;-145.01;100.00;64805.59;4903511;29;20043;-59
2023/11/15 06:10:14;;;;;;;0.20;0.20;;;;;;;-145.01;100.00;64805.59;4904396;29;20048;-58
2023/11/15 06:12:41;;;;;;;0.30;0.30;;;;;;;-145.01;100.00;64805.59;4911552;29;20056;-60
2023/11/15 06:15:13;;;;;;;0.30;0.30;;;;;;;-145.01;100.00;64805.59;4906969;29;20067;-59
2023/11/15 06:17:40;;;;;;;0.22;0.22;;;;;;;-145.01;100.00;64805.59;4901288;29;20146;-58
2023/11/15 06:20:09;;;;;;;0.30;0.30;;;;;;;-145.01;100.00;64805.59;4907811;29;20320;-59
2023/11/15 06:22:37;;;;;;;0.30;0.30;;;;;;;-145.01;100.00;64805.59;4900811;29;20056;-59
2023/11/15 06:25:07;;;;;;;0.30;0.30;;;;;;;-145.01;100.00;64805.59;4905307;29;20128;-58
2023/11/15 06:27:36;;;;;;;0.25;0.25;;;;;;;-145.01;100.00;64805.59;4904276;29;20135;-59
2023/11/15 06:30:03;;;;;;;0.25;0.25;;;;;;;-145.01;100.00;64805.59;4900179;29;20123;-59
2023/11/15 06:32:32;;;;;;;0.20;0.20;;;;;;;-145.01;100.00;64805.59;4902174;29;20056;-59
2023/11/15 06:34:59;;;;;;;0.20;0.20;;;;;;;-145.01;100.00;64805.59;4907417;29;20222;-59
2023/11/15 06:37:26;;;;;;;0.20;0.20;;;;;;;-145.01;100.00;64805.59;4902383;29;20938;-59
2023/11/15 06:39:53;;;;;;;0.30;0.30;;;;;;;-145.01;100.00;64805.59;4901106;29;20072;-59
2023/11/15 06:42:21;;;;;;;0.30;0.30;;;;;;;-145.01;100.00;64805.59;4896518;29;20048;-60
2023/11/15 06:44:50;;;;;;;0.30;0.30;;;;;;;-145.01;100.00;64805.59;4903430;29;20079;-60
2023/11/15 06:47:17;;;;;;;0.30;0.30;;;;;;;-145.01;100.00;64805.59;4894659;29;20048;-59
2023/11/15 06:49:45;;;;;;;0.30;0.30;;;;;;;-145.01;100.00;64805.59;4898271;29;20051;-59
2023/11/15 06:52:12;;;;;;;0.20;0.20;;;;;;;-145.01;100.00;64805.59;4902212;29;20396;-59
2023/11/15 06:54:40;;;;;;;0.20;0.20;;;;;;;-145.01;100.00;64805.59;4894412;29;20139;-60
2023/11/15 06:57:08;;;;;;;0.30;0.30;;;;;;;-145.01;100.00;64805.59;4897687;29;20059;-59
2023/11/15 06:59:35;;;;;;;0.30;0.30;;;;;;;-145.01;100.00;64805.59;4903815;29;20056;-59
2023/11/15 07:02:06;;;;;;;0.30;0.30;;;;;;;-145.01;100.00;64805.59;4904866;29;20675;-59
2023/11/15 07:04:33;;;;;;;0.30;0.30;;;;;;;-145.01;100.00;64805.59;4905329;29;20055;-59
2023/11/15 07:07:00;;;;;;;0.28;0.28;;;;;;;-145.01;100.00;64805.59;4899325;29;20120;-59
2023/11/15 07:09:28;;;;;;;0.40;0.40;;;;;;;-145.01;100.00;64805.59;4905867;29;20593;-59
2023/11/15 07:11:56;;;;;;;0.30;0.30;;;;;;;-145.01;100.00;64805.59;4899670;29;20115;-59
2023/11/15 07:14:24;;;;;;;0.30;0.30;;;;;;;-145.01;100.00;64805.59;4905528;29;20399;-59
2023/11/15 07:16:55;;;;;;;0.30;0.30;;;;;;;-145.01;100.00;64805.59;4895210;29;20096;-59
2023/11/15 07:19:24;;;;;;;0.30;0.30;;;;;;;-145.01;100.00;64805.59;4902268;29;20131;-58
2023/11/15 07:21:52;;;;;;;0.30;0.30;;;;;;;-145.01;100.00;64805.59;4898869;29;20057;-59
2023/11/15 07:24:19;;;;;;;0.40;0.40;;;;;;;-145.01;100.00;64805.59;4899537;29;20060;-58
2023/11/15 07:26:47;;;;;;;0.32;0.32;;;;;;;-145.01;100.00;64805.59;4899016;29;20126;-59
2023/11/15 07:29:20;;;;;;;0.30;0.30;;;;;;;-145.01;100.00;64805.59;4905365;29;20049;-59
2023/11/15 07:31:51;;;;;;;0.40;0.40;;;;;;;-145.01;100.00;64805.59;4901903;29;20056;-59
2023/11/15 07:34:21;;;;;;;0.38;0.38;;;;;;;-145.01;100.00;64805.59;4902566;29;20052;-58
2023/11/15 07:36:49;;;;;;;0.40;0.40;;;;;;;-145.01;100.00;64805.59;4904829;29;20084;-59
2023/11/15 07:39:18;;;;;;;0.43;0.43;;;;;;;-145.01;100.00;64805.59;4900975;29;20443;-59
2023/11/15 07:41:45;;;;;;;0.28;0.28;;;;;;;-145.01;100.00;64805.59;4901041;29;20055;-59
2023/11/15 07:44:17;;;;;;;0.30;0.30;;;;;;;-145.01;100.00;64805.59;4909066;29;21344;-58
2023/11/15 07:46:46;;;;;;;0.20;0.20;;;;;;;-145.01;100.00;64805.59;4903014;29;20055;-58
2023/11/15 07:49:18;;;;;;;0.40;0.40;;;;;;;-145.01;100.00;64805.59;4897070;29;20047;-58
2023/11/15 07:51:45;;;;;;;0.40;0.40;;;;;;;-145.01;100.00;64805.59;4894768;29;20044;-58
2023/11/15 07:54:15;;;;;;;0.30;0.30;;;;;;;-145.01;100.00;64805.59;4900151;29;20053;-59
2023/11/15 07:56:42;;;;;;;0.30;0.30;;;;;;;-145.01;100.00;64805.59;4900141;29;20063;-58
2023/11/15 07:59:10;;;;;;;0.40;0.40;;;;;;;-145.01;100.00;64805.59;4904087;29;20086;-59
2023/11/15 08:01:38;;;;;;;0.30;0.30;;;;;;;-145.01;100.00;64805.59;4905065;29;20143;-59
2023/11/15 08:04:06;;;;;;;0.30;0.30;;;;;;;-145.01;100.00;64805.59;4904343;29;20060;-58
2023/11/15 08:06:35;;;;;;;0.30;0.30;;;;;;;-145.01;100.00;64805.59;4900103;29;20037;-59
2023/11/15 08:09:03;;;;;;;0.30;0.30;;;;;;;-145.01;100.00;64805.59;4902290;29;20043;-59
2023/11/15 08:11:34;;;;;;;0.30;0.30;;;;;;;-145.01;100.00;64805.59;4905930;29;20138;-59
2023/11/15 08:14:06;;;;;;;0.30;0.30;;;;;;;-145.01;100.00;64805.59;4907228;29;20058;-59
2023/11/15 08:16:33;;;;;;;0.30;0.30;;;;;;;-145.01;100.00;64805.59;4904587;29;20052;-58
2023/11/15 08:19:01;;;;;;;0.30;0.30;;;;;;;-145.01;100.00;64805.59;4899602;29;20040;-60
2023/11/15 08:21:30;;;;;;;0.22;0.22;;;;;;;-145.01;100.00;64805.59;4900888;29;20402;-59
2023/11/15 08:23:58;;;;;;;0.30;0.30;;;;;;;-145.01;100.00;64805.59;4898889;29;20135;-60
2023/11/15 08:26:27;;;;;;;0.30;0.30;;;;;;;-145.01;100.00;64805.59;4903613;29;20715;-61
2023/11/15 08:28:56;;;;;;;0.30;0.30;;;;;;;-145.01;100.00;64805.59;4900958;29;20055;-58
2023/11/15 08:31:23;;;;;;;0.30;0.30;;;;;;;-145.01;100.00;64805.59;4907516;29;20243;-58
2023/11/15 08:33:50;;;;;;;0.30;0.30;;;;;;;-145.01;100.00;64805.59;4903711;29;20490;-58
2023/11/15 08:36:18;;;;;;;0.17;0.17;;;;;;;-145.01;100.00;64805.59;4880716;29;21013;-58
2023/11/15 08:38:45;;;;;;;0.28;0.28;;;;;;;-145.01;100.00;64805.59;4896927;29;20048;-58
2023/11/15 08:41:16;;;;;;;0.30;0.30;;;;;;;-145.01;100.00;64805.59;4897743;29;20156;-58
2023/11/15 08:43:43;;;;;;;0.15;0.15;;;;;;;-145.01;100.00;64805.59;4889171;29;20199;-58
2023/11/15 08:46:12;;;;;;;0.15;0.15;;;;;;;-145.01;100.00;64805.59;4899619;29;20035;-58
2023/11/15 08:48:39;;;;;;;0.20;0.20;;;;;;;-145.01;100.00;64805.59;4900999;29;20116;-58
2023/11/15 08:51:07;;;;;;;0.10;0.10;;;;;;;-145.01;100.00;64805.59;4898128;29;20049;-58
2023/11/15 08:53:34;;;;;;;0.20;0.20;;;;;;;-145.01;100.00;64805.59;4899885;29;20055;-58
2023/11/15 08:56:03;;;;;;;0.10;0.10;;;;;;;-145.01;100.00;64805.59;4896559;29;20044;-58
2023/11/15 08:58:30;;;;;;;0.28;0.28;;;;;;;-145.01;100.00;64805.59;4901706;29;20763;-58
2023/11/15 09:01:01;;;;;;;0.20;0.20;;;;;;;-145.01;100.00;64805.59;4897497;29;20438;-60
2023/11/15 09:03:30;;;;;;;0.20;0.20;;;;;;;-145.01;100.00;64805.59;4907651;29;20527;-58
2023/11/15 09:05:59;;;;;;;0.20;0.20;;;;;;;-145.01;100.00;64805.59;4880448;29;20057;-58
2023/11/15 09:08:26;;;;;;;0.20;0.20;;;;;;;-145.01;100.00;64805.59;4891417;29;20045;-58
2023/11/15 09:10:53;;;;;;;0.25;0.25;;;;;;;-145.01;100.00;64805.59;4890224;29;20099;-58
2023/11/15 09:13:22;;;;;;;0.20;0.20;;;;;;;-145.01;100.00;64805.59;4882746;29;20043;-58
2023/11/15 09:15:50;;;;;;;0.20;0.20;;;;;;;-145.01;100.00;64805.59;4871569;29;20796;-58
2023/11/15 09:18:19;;;;;;;0.30;0.30;;;;;;;-145.01;100.00;64805.59;4879523;29;20135;-58
2023/11/15 09:20:49;;;;;;;0.30;0.30;;;;;;;-145.01;100.00;64805.59;4902868;29;20162;-59
2023/11/15 09:23:17;;;;;;;0.30;0.30;;;;;;;-145.01;100.00;64805.59;4905742;29;20590;-59
2023/11/15 09:25:46;;;;;;;0.20;0.20;;;;;;;-145.01;100.00;64805.59;4905090;29;20083;-58
2023/11/15 09:28:14;;;;;;;0.20;0.20;;;;;;;-145.01;100.00;64805.59;4904251;29;20124;-59
2023/11/15 09:30:41;;;;;;;0.20;0.20;;;;;;;-145.01;100.00;64805.59;4907022;29;20044;-59
2023/11/15 09:33:09;;;;;;;0.10;0.10;;;;;;;-145.01;100.00;64805.59;4902755;29;20471;-59
2023/11/15 09:35:38;;;;;;;0.20;0.20;;;;;;;-145.01;100.00;64805.59;4903887;29;20505;-59
2023/11/15 09:38:10;;;;;;;0.20;0.20;;;;;;;-145.01;100.00;64805.59;4914348;29;20547;-59
2023/11/15 09:40:37;;;;;;;0.10;0.10;;;;;;;-145.01;100.00;64805.59;4903486;29;20048;-59
2023/11/15 09:43:05;;;;;;;0.10;0.10;;;;;;;-145.01;100.00;64805.59;4899956;29;20108;-59
2023/11/15 09:45:33;;;;;;;0.10;0.10;;;;;;;-145.01;100.00;64805.59;4902893;29;20051;-59
2023/11/15 09:48:00;;;;;;;0.10;0.10;;;;;;;-145.01;100.00;64805.59;4898760;29;20068;-59
2023/11/15 09:50:31;;;;;;;0.10;0.10;;;;;;;-145.01;100.00;64805.59;4908820;29;20503;-59
2023/11/15 09:52:59;;;;;;;0.20;0.20;;;;;;;-145.01;100.00;64805.59;4903980;29;20419;-59
2023/11/15 09:55:27;;;;;;;0.00;0.00;;;;;;;-145.01;100.00;64805.59;4903429;29;20528;-59
2023/11/15 09:57:55;;;;;;;0.10;0.10;;;;;;;-145.01;100.00;64805.59;4915001;29;20047;-59
2023/11/15 10:00:23;;;;;;;0.20;0.20;;;;;;;-145.01;100.00;64805.59;4915053;29;20039;-59
2023/11/15 10:02:51;;;;;;;0.00;0.00;;;;;;;-145.01;100.00;64805.59;4905217;29;20100;-59
2023/11/15 10:05:20;;;;;;;0.10;0.10;;;;;;;-145.01;100.00;64805.59;4903930;29;20514;-59
2023/11/15 10:07:48;;;;;;;0.00;0.00;;;;;;;-145.01;100.00;64805.59;4907195;29;20056;-59
2023/11/15 10:10:21;;;;;;;0.10;0.10;;;;;;;-145.01;100.00;64805.59;4907520;29;20293;-59
2023/11/15 10:12:51;;;;;;;0.10;0.10;;;;;;;-145.01;100.00;64805.59;4913613;29;20062;-59
2023/11/15 10:15:19;;;;;;;0.20;0.20;;;;;;;-145.01;100.00;64805.59;4916363;29;20448;-59
2023/11/15 10:17:49;;;;;;;0.10;0.10;;;;;;;-145.01;100.00;64805.59;4911692;29;20032;-59
2023/11/15 10:20:20;;;;;;;0.17;0.17;;;;;;;-145.01;100.00;64805.59;4912734;29;20053;-58
2023/11/15 10:22:48;;;;;;;0.10;0.10;;;;;;;-145.01;100.00;64805.59;4919146;29;20059;-59
2023/11/15 10:25:15;;;;;;;0.10;0.10;;;;;;;-145.01;100.00;64805.59;4903316;29;20052;-58
2023/11/15 10:27:42;;;;;;;0.10;0.10;;;;;;;-145.01;100.00;64805.59;4908881;29;20055;-59
2023/11/15 10:30:13;;;;;;;0.10;0.10;;;;;;;-145.01;100.00;64805.59;4902706;29;20621;-59
2023/11/15 10:32:40;;;;;;;0.10;0.10;;;;;;;-145.01;100.00;64805.59;4911950;29;20044;-59
2023/11/15 10:35:08;;;;;;;0.10;0.10;;;;;;;-145.01;100.00;64805.59;4912941;29;20091;-58
2023/11/15 10:37:47;;;;;;;0.10;0.10;;;;;;;-145.01;100.00;64805.59;4901204;29;20495;-58
2023/11/15 10:40:15;;;;;;;0.00;0.00;;;;;;;-145.01;100.00;64805.59;4906943;29;20061;-60
2023/11/15 10:42:45;;;;;;;0.10;0.10;;;;;;;-145.01;100.00;64805.59;4906931;29;20446;-60
2023/11/15 10:45:14;;;;;;;0.10;0.10;;;;;;;-145.01;100.00;64805.59;4906935;29;20040;-58
2023/11/15 10:47:44;;;;;;;0.05;0.05;;;;;;;-145.01;100.00;64805.59;4898365;29;20052;-60
2023/11/15 10:50:15;;;;;;;0.10;0.10;;;;;;;-145.01;100.00;64805.59;4905076;29;20092;-59
2023/11/15 10:52:45;;;;;;;0.10;0.10;;;;;;;-145.01;100.00;64805.59;4908527;29;20048;-60
2023/11/15 10:55:18;;;;;;;0.10;0.10;;;;;;;-145.01;100.00;64805.59;4910994;29;20048;-60
2023/11/15 10:57:47;;;;;;;0.10;0.10;;;;;;;-145.01;100.00;64805.59;4907399;29;20064;-60
2023/11/15 11:00:21;;;;;;;0.10;0.10;;;;;;;-145.01;100.00;64805.59;4906669;29;20510;-59
2023/11/15 11:02:51;;;;;;;0.10;0.10;;;;;;;-145.01;100.00;64805.59;4907368;29;20059;-59
2023/11/15 11:05:21;;;;;;;;;;;;;;;-145.01;100.00;64805.59;4909065;29;20066;-60
2023/11/15 11:07:57;;;;;;;0.10;0.10;;;;;;;-145.01;100.00;64805.59;4904451;29;19927;-59
2023/11/15 11:10:28;;;;;;;0.10;0.10;;;;;;;-145.01;100.00;64805.59;4906642;29;20086;-61
2023/11/15 11:12:58;;;;;;;0.10;0.10;;;;;;;-145.01;100.00;64805.59;4906262;29;20333;-60